createdAt,value
2019-05-17T00:00:01.828Z,8.68
2019-05-17T00:05:02.069Z,8.57
2019-05-17T00:10:01.208Z,8.47
2019-05-17T00:15:01.337Z,8.53
2019-05-17T00:20:01.433Z,8.38
2019-05-17T00:25:01.626Z,8.39
2019-05-17T00:30:01.753Z,8.32
2019-05-17T00:35:01.877Z,8.32
2019-05-17T00:40:02.166Z,8.45
2019-05-17T00:45:01.343Z,8.39
2019-05-17T00:50:01.489Z,8.29
2019-05-17T00:55:01.649Z,8.31
2019-05-17T01:00:01.791Z,8.23
2019-05-17T01:05:01.971Z,8.27
2019-05-17T01:10:02.074Z,8.18
2019-05-17T01:15:01.204Z,8.08
2019-05-17T01:20:01.453Z,8.06
2019-05-17T01:25:01.728Z,8.02
2019-05-17T01:30:02.100Z,7.99
2019-05-17T01:35:01.262Z,8
2019-05-17T01:40:01.440Z,8.04
2019-05-17T01:45:01.571Z,8.02
2019-05-17T01:50:01.698Z,8.04
2019-05-17T01:55:01.826Z,8.04
2019-05-17T02:00:02.031Z,8
2019-05-17T02:05:01.191Z,7.98
2019-05-17T02:10:02.038Z,7.93
2019-05-17T02:15:01.171Z,7.94
2019-05-17T02:20:01.353Z,7.88
2019-05-17T02:25:01.442Z,7.83
2019-05-17T02:30:02.471Z,7.85
2019-05-17T02:35:03.249Z,7.89
2019-05-17T02:40:04.688Z,7.96
2019-05-17T02:45:03.156Z,7.96
2019-05-17T02:50:05.196Z,8.03
2019-05-17T02:55:04.036Z,8.03
2019-05-17T03:00:04.484Z,8
2019-05-17T03:05:03.973Z,8.03
2019-05-17T03:10:13.833Z,8.02
2019-05-17T03:15:04.116Z,8.03
2019-05-17T03:20:03.936Z,7.92
2019-05-17T03:25:03.321Z,7.84
2019-05-17T03:30:04.078Z,8.01
2019-05-17T03:35:07.142Z,8.06
2019-05-17T03:40:04.759Z,7.99
2019-05-17T03:45:02.886Z,7.78
2019-05-17T03:50:03.167Z,7.84
2019-05-17T03:55:04.011Z,7.79
2019-05-17T04:00:03.930Z,7.96
2019-05-17T04:05:04.189Z,7.99
2019-05-17T04:10:04.450Z,7.86
2019-05-17T04:15:03.183Z,7.9
2019-05-17T04:20:03.403Z,8.14
2019-05-17T04:25:02.975Z,8.11
2019-05-17T04:30:03.728Z,8.13
2019-05-17T04:35:03.619Z,8.03
2019-05-17T04:40:03.531Z,8.19
2019-05-17T04:45:03.818Z,8.15
2019-05-17T04:50:03.905Z,8.17
2019-05-17T04:55:04.134Z,8.19
2019-05-17T05:00:04.285Z,8.24
2019-05-17T05:05:03.418Z,8.14
2019-05-17T05:10:02.996Z,8.16
2019-05-17T05:15:03.607Z,8.33
2019-05-17T05:20:02.957Z,8.29
2019-05-17T05:25:02.192Z,8.42
2019-05-17T05:30:03.027Z,8.44
2019-05-17T05:35:03.162Z,8.17
2019-05-17T05:40:02.035Z,8.35
2019-05-17T05:45:03.124Z,8.24
2019-05-17T05:50:01.891Z,8.22
2019-05-17T05:55:02.167Z,8.36
2019-05-17T06:00:02.188Z,8.34
2019-05-17T06:05:02.144Z,8.31
2019-05-17T06:10:02.239Z,8.36
2019-05-17T06:15:02.765Z,8.44
2019-05-17T06:20:02.646Z,8.44
2019-05-17T06:25:03.749Z,8.53
2019-05-17T06:30:01.598Z,8.5
2019-05-17T06:35:02.071Z,8.61
2019-05-17T06:40:02.377Z,8.39
2019-05-17T06:45:02.291Z,8.33
2019-05-17T06:50:03.078Z,8.45
2019-05-17T06:55:05.725Z,8.44
2019-05-17T07:00:03.218Z,8.28
2019-05-17T07:05:01.644Z,8.43
2019-05-17T07:10:01.937Z,8.24
2019-05-17T07:15:02.243Z,8.35
2019-05-17T07:20:01.413Z,8.24
2019-05-17T07:25:01.543Z,8.24
2019-05-17T07:30:01.677Z,8.37
2019-05-17T07:35:01.838Z,8.42
2019-05-17T07:40:05.007Z,8.33
2019-05-17T07:45:01.442Z,8.44
2019-05-17T07:50:01.572Z,8.44
2019-05-17T07:55:02.631Z,8.27
2019-05-17T08:00:01.910Z,8.52
2019-05-17T08:05:02.029Z,8.64
2019-05-17T08:10:01.120Z,8.75
2019-05-17T08:15:01.272Z,8.78
2019-05-17T08:20:01.475Z,8.65
2019-05-17T08:25:01.591Z,8.5
2019-05-17T08:30:01.714Z,8.76
2019-05-17T08:35:01.912Z,8.64
2019-05-17T08:40:02.048Z,8.91
2019-05-17T08:45:01.175Z,8.85
2019-05-17T08:50:01.271Z,8.87
2019-05-17T08:55:01.423Z,8.74
2019-05-17T09:00:01.550Z,8.87
2019-05-17T09:05:01.651Z,8.91
2019-05-17T09:10:02.126Z,8.98
2019-05-17T09:15:01.355Z,8.81
2019-05-17T09:20:01.486Z,8.98
2019-05-17T09:25:01.800Z,8.97
2019-05-17T09:30:01.984Z,9.32
2019-05-17T09:35:01.147Z,9.2
2019-05-17T09:40:01.273Z,9.34
2019-05-17T09:45:01.404Z,9.4
2019-05-17T09:50:01.518Z,9.66
2019-05-17T09:55:01.716Z,9.63
2019-05-17T10:00:01.847Z,9.88
2019-05-17T10:05:01.966Z,9.91
2019-05-17T10:10:02.153Z,10.08
2019-05-17T10:15:01.281Z,10.08
2019-05-17T10:20:01.417Z,10.57
2019-05-17T10:25:01.508Z,10.62
2019-05-17T10:30:01.669Z,10.52
2019-05-17T10:35:01.812Z,10.5
2019-05-17T10:40:01.984Z,10.44
2019-05-17T10:45:02.179Z,10.42
2019-05-17T10:50:01.320Z,10.65
2019-05-17T10:55:01.446Z,10.52
2019-05-17T11:00:01.576Z,10.53
2019-05-17T11:05:01.751Z,10.49
2019-05-17T11:10:01.876Z,10.5
2019-05-17T11:15:10.920Z,10.64
2019-05-17T11:20:01.899Z,10.59
2019-05-17T11:25:02.239Z,10.72
2019-05-17T11:30:01.464Z,10.85
2019-05-17T11:35:01.663Z,10.99
2019-05-17T11:40:01.800Z,11.04
2019-05-17T11:45:02.013Z,11.11
2019-05-17T11:50:01.115Z,11.27
2019-05-17T11:55:01.284Z,11.44
2019-05-17T12:00:01.474Z,11.69
2019-05-17T12:05:01.654Z,11.88
2019-05-17T12:10:01.778Z,11.92
2019-05-17T12:15:02.042Z,12.14
2019-05-17T12:20:01.307Z,12.38
2019-05-17T12:25:01.528Z,12.58
2019-05-17T12:30:01.684Z,12.74
2019-05-17T12:35:02.117Z,13.11
2019-05-17T12:40:01.422Z,13.09
2019-05-17T12:45:01.754Z,13.37
2019-05-17T12:50:01.949Z,13.59
2019-05-17T12:55:02.049Z,13.53
2019-05-17T13:00:01.198Z,13.56
2019-05-17T13:05:01.459Z,13.5
2019-05-17T13:10:01.714Z,13.51
2019-05-17T13:15:01.899Z,13.51
2019-05-17T13:20:01.472Z,13.55
2019-05-17T13:25:01.768Z,13.71
2019-05-17T13:30:01.900Z,13.97
2019-05-17T13:35:02.035Z,14.17
2019-05-17T13:40:01.178Z,14.42
2019-05-17T13:45:01.320Z,14.6
2019-05-17T13:50:01.470Z,14.63
2019-05-17T13:55:01.605Z,14.98
2019-05-17T14:00:01.726Z,15.1
2019-05-17T14:05:02.023Z,14.96
2019-05-17T14:10:01.245Z,15.14
2019-05-17T14:15:01.505Z,15.43
2019-05-17T14:20:01.758Z,15.66
2019-05-17T14:25:01.967Z,15.45
2019-05-17T14:30:02.122Z,15.26
2019-05-17T14:35:01.299Z,15.37
2019-05-17T14:40:01.422Z,15.47
2019-05-17T14:45:01.679Z,15.59
2019-05-17T14:50:01.855Z,15.73
2019-05-17T14:55:02.288Z,16.05
2019-05-17T15:00:01.559Z,16.18
2019-05-17T15:05:02.014Z,16.1
2019-05-17T15:10:01.847Z,16.06
2019-05-17T15:15:02.001Z,15.89
2019-05-17T15:20:01.140Z,15.68
2019-05-17T15:25:01.605Z,15.7
2019-05-17T15:30:02.138Z,15.63
2019-05-17T15:35:01.610Z,15.61
2019-05-17T15:40:01.839Z,15.58
2019-05-17T15:45:02.089Z,15.59
2019-05-17T15:50:01.278Z,15.68
2019-05-17T15:55:01.413Z,15.65
2019-05-17T16:00:01.573Z,15.75
2019-05-17T16:05:01.797Z,15.83
2019-05-17T16:10:01.967Z,15.85
2019-05-17T16:15:01.188Z,15.95
2019-05-17T16:20:01.360Z,15.91
2019-05-17T16:25:01.533Z,15.92
2019-05-17T16:30:01.635Z,15.83
2019-05-17T16:35:01.797Z,15.77
2019-05-17T16:40:01.954Z,15.77
2019-05-17T16:45:02.387Z,15.82
2019-05-17T16:50:01.609Z,15.77
2019-05-17T16:55:01.722Z,15.69
2019-05-17T17:00:01.860Z,15.68
2019-05-17T17:05:02.023Z,15.65
2019-05-17T17:10:01.146Z,15.62
2019-05-17T17:15:01.271Z,15.71
2019-05-17T17:20:01.419Z,15.82
2019-05-17T17:25:01.661Z,15.84
2019-05-17T17:30:01.818Z,15.82
2019-05-17T17:35:02.445Z,15.68
2019-05-17T17:40:01.669Z,15.58
2019-05-17T17:45:01.859Z,15.45
2019-05-17T17:50:02.002Z,15.38
2019-05-17T17:55:01.140Z,15.36
2019-05-17T18:00:01.269Z,15.28
2019-05-17T18:05:01.475Z,15.25
2019-05-17T18:10:01.592Z,15.17
2019-05-17T18:15:04.445Z,15.12
2019-05-17T18:20:01.304Z,15.06
2019-05-17T18:25:01.457Z,14.99
2019-05-17T18:30:01.593Z,14.92
2019-05-17T18:35:01.714Z,14.85
2019-05-17T18:40:01.857Z,14.81
2019-05-17T18:45:01.971Z,14.81
2019-05-17T18:50:02.100Z,14.8
2019-05-17T18:55:01.230Z,14.79
2019-05-17T19:00:01.358Z,14.82
2019-05-17T19:05:01.557Z,14.79
2019-05-17T19:10:01.686Z,14.73
2019-05-17T19:15:01.836Z,14.66
2019-05-17T19:20:01.988Z,14.59
2019-05-17T19:25:01.142Z,14.53
2019-05-17T19:30:01.268Z,14.49
2019-05-17T19:35:01.421Z,14.42
2019-05-17T19:40:01.558Z,14.34
2019-05-17T19:45:01.777Z,14.3
2019-05-17T19:50:01.926Z,14.24
2019-05-17T19:55:02.178Z,14.11
2019-05-17T20:00:01.333Z,14.06
2019-05-17T20:05:01.513Z,13.99
2019-05-17T20:10:01.657Z,13.89
2019-05-17T20:15:15.979Z,13.84
2019-05-17T20:20:01.262Z,13.75
2019-05-17T20:25:01.422Z,13.67
2019-05-17T20:30:02.248Z,13.59
2019-05-17T20:35:01.657Z,13.49
2019-05-17T20:40:01.788Z,13.32
2019-05-17T20:45:01.992Z,13.17
2019-05-17T20:50:01.123Z,12.7
2019-05-17T20:55:01.359Z,12.4
2019-05-17T21:00:01.511Z,11.99
2019-05-17T21:05:01.715Z,11.82
2019-05-17T21:10:01.831Z,11.53
2019-05-17T21:15:01.971Z,11.4
2019-05-17T21:20:02.147Z,11.42
2019-05-17T21:25:01.275Z,11.44
2019-05-17T21:30:01.404Z,11.33
2019-05-17T21:35:01.535Z,11.27
2019-05-17T21:40:01.704Z,11.27
2019-05-17T21:45:01.839Z,11.38
2019-05-17T21:50:01.967Z,11.36
2019-05-17T21:55:02.206Z,11.29
2019-05-17T22:00:01.344Z,11.2
2019-05-17T22:05:01.502Z,11.2
2019-05-17T22:10:01.640Z,11.2
2019-05-17T22:15:01.841Z,11.27
2019-05-17T22:20:02.034Z,11.29
2019-05-17T22:25:01.178Z,11.25
2019-05-17T22:30:01.312Z,11.28
2019-05-17T22:35:01.532Z,11.18
2019-05-17T22:40:01.629Z,11
2019-05-17T22:45:01.751Z,10.87
2019-05-17T22:50:01.883Z,10.81
2019-05-17T22:55:02.170Z,10.71
2019-05-17T23:00:01.325Z,10.59
2019-05-17T23:05:01.828Z,10.63
2019-05-17T23:10:01.406Z,10.63
2019-05-17T23:15:01.557Z,10.45
2019-05-17T23:20:01.666Z,10.45
2019-05-17T23:25:01.762Z,10.45
2019-05-17T23:30:01.895Z,10.41
2019-05-17T23:35:02.056Z,10.33
2019-05-17T23:40:01.183Z,10.22
2019-05-17T23:45:01.316Z,10.18
2019-05-17T23:50:01.441Z,10.13
2019-05-17T23:55:01.621Z,10.07
